ADDS METAR Data INFO
IDs: Format: Raw Decoded Include TAF

Data at: 0716 UTC 19 Oct 2017

KN03 190655Z AUTO 00000KT 10SM CLR 05/05 A3019 RMK AO2
KN03 190635Z AUTO 00000KT 10SM CLR 05/05 A3020 RMK AO2
KN03 190615Z AUTO 00000KT 10SM CLR 05/05 A3020 RMK AO2
KN03 190555Z AUTO 00000KT 10SM CLR 06/06 A3020 RMK AO2
KN03 190535Z AUTO 00000KT 10SM CLR 06/06 A3020 RMK AO2
KN03 190515Z AUTO 00000KT 10SM CLR 05/05 A3021 RMK AO2
KN03 190455Z AUTO 00000KT 10SM CLR 06/06 A3021 RMK AO2
KN03 190435Z AUTO 00000KT 10SM CLR 06/06 A3021 RMK AO2
KN03 190415Z AUTO 00000KT 10SM CLR 06/05 A3021 RMK AO2
KN03 190355Z AUTO 00000KT 10SM CLR 06/06 A3022 RMK AO2
KN03 190335Z AUTO 00000KT 10SM CLR 06/06 A3022 RMK AO2
KN03 190315Z AUTO 00000KT 10SM CLR 06/06 A3023 RMK AO2
KN03 190255Z AUTO 00000KT 10SM CLR 07/06 A3022 RMK AO2
KN03 190235Z AUTO 00000KT 10SM CLR 07/06 A3023 RMK AO2
KN03 190215Z AUTO 00000KT 10SM CLR 07/06 A3023 RMK AO2
KN03 190155Z AUTO 00000KT 10SM CLR 07/06 A3023 RMK AO2
KN03 190135Z AUTO 00000KT 10SM CLR 08/07 A3023 RMK AO2
KN03 190115Z AUTO 00000KT 10SM CLR 08/07 A3023 RMK AO2
KN03 190055Z AUTO 00000KT 10SM CLR 08/07 A3024 RMK AO2
KN03 190035Z AUTO 00000KT 10SM CLR 10/07 A3023 RMK AO2
KN03 190015Z AUTO 00000KT 10SM CLR 10/07 A3024 RMK AO2
KN03 182355Z AUTO 00000KT 10SM CLR 10/07 A3024 RMK AO2
KN03 182335Z AUTO 00000KT 10SM CLR 11/07 A3024 RMK AO2
KN03 182315Z AUTO 00000KT 10SM CLR 12/08 A3024 RMK AO2
KN03 182255Z AUTO 00000KT 10SM CLR 12/08 A3023 RMK AO2
KN03 182235Z AUTO 00000KT 10SM CLR 13/08 A3023 RMK AO2
KN03 182215Z AUTO 00000KT 10SM CLR 15/08 A3022 RMK AO2
KN03 182155Z AUTO 00000KT 10SM CLR 17/08 A3022 RMK AO2
KN03 182135Z AUTO 23003KT 10SM CLR 19/06 A3022 RMK AO2
KN03 182115Z AUTO 23004KT 10SM CLR 20/07 A3021 RMK AO2
KN03 182055Z AUTO 21003KT 10SM CLR 20/07 A3022 RMK AO2
KN03 182035Z AUTO 24005KT 10SM CLR 20/06 A3022 RMK AO2
KN03 182015Z AUTO 24006KT 10SM CLR 20/07 A3023 RMK AO2
KN03 181955Z AUTO 25005KT 10SM CLR 20/06 A3023 RMK AO2
KN03 181935Z AUTO 22005KT 10SM CLR 20/07 A3024 RMK AO2
KN03 181915Z AUTO 21004KT 10SM CLR 20/07 A3024 RMK AO2
KN03 181855Z AUTO 20006KT 10SM CLR 20/08 A3025 RMK AO2
KN03 181835Z AUTO 18005KT 10SM CLR 20/07 A3025 RMK AO2
KN03 181815Z AUTO 21004KT 10SM CLR 20/07 A3026 RMK AO2
KN03 181755Z AUTO 21005KT 10SM CLR 19/07 A3026 RMK AO2
KN03 181735Z AUTO 23005KT 10SM CLR 19/07 A3027 RMK AO2
KN03 181715Z AUTO 26005KT 10SM CLR 19/08 A3028 RMK AO2
KN03 181655Z AUTO 00000KT 10SM CLR 18/08 A3029 RMK AO2
KN03 181635Z AUTO 25004KT 10SM CLR 18/08 A3030 RMK AO2
KN03 181615Z AUTO 27004KT 10SM CLR 18/08 A3030 RMK AO2
KN03 181555Z AUTO 22005KT 10SM CLR 17/08 A3031 RMK AO2
KN03 181535Z AUTO 29004KT 10SM CLR 17/08 A3031 RMK AO2
KN03 181515Z AUTO 26005KT 10SM CLR 16/08 A3031 RMK AO2
KN03 181455Z AUTO 22003KT 10SM CLR 15/08 A3030 RMK AO2
KN03 181435Z AUTO 22004KT 10SM CLR 14/08 A3031 RMK AO2
KN03 181415Z AUTO 21008KT 10SM CLR 13/08 A3031 RMK AO2
KN03 181355Z AUTO 21004KT 10SM CLR 12/07 A3031 RMK AO2
KN03 181335Z AUTO 00000KT 10SM CLR 08/06 A3031 RMK AO2
KN03 181315Z AUTO 00000KT 10SM CLR 07/05 A3032 RMK AO2
KN03 181255Z AUTO 00000KT 10SM CLR 05/04 A3031 RMK AO2
KN03 181235Z AUTO 00000KT 10SM CLR 05/04 A3030 RMK AO2
KN03 181215Z AUTO 00000KT 10SM CLR 03/03 A3030 RMK AO2
KN03 181155Z AUTO 00000KT 10SM CLR 02/02 A3029 RMK AO2
KN03 181135Z AUTO 00000KT 10SM CLR 02/02 A3029 RMK AO2
KN03 181115Z AUTO 00000KT 10SM CLR 02/02 A3028 RMK AO2
KN03 181055Z AUTO 00000KT 10SM CLR 02/02 A3028 RMK AO2
KN03 181035Z AUTO 00000KT 10SM CLR 02/02 A3027 RMK AO2
KN03 181015Z AUTO 00000KT 10SM CLR 02/02 A3027 RMK AO2
KN03 180955Z AUTO 00000KT 10SM CLR 02/02 A3026 RMK AO2
KN03 180935Z AUTO 00000KT 10SM CLR 02/02 A3026 RMK AO2
KN03 180915Z AUTO 00000KT 10SM CLR 03/03 A3025 RMK AO2
KN03 180855Z AUTO 00000KT 10SM CLR 03/03 A3024 RMK AO2
KN03 180835Z AUTO 00000KT 10SM CLR 03/03 A3024 RMK AO2
KN03 180815Z AUTO 00000KT 10SM CLR 03/03 A3023 RMK AO2
KN03 180755Z AUTO 00000KT 10SM CLR 03/03 A3023 RMK AO2
KN03 180735Z AUTO 00000KT 10SM CLR 03/03 A3023 RMK AO2
KN03 180715Z AUTO 00000KT 10SM CLR 03/03 A3022 RMK AO2
KN03 180655Z AUTO 00000KT 10SM CLR 04/03 A3022 RMK AO2
KN03 180635Z AUTO 00000KT 10SM CLR 04/03 A3022 RMK AO2
KN03 180615Z AUTO 00000KT 10SM CLR 04/03 A3022 RMK AO2
KN03 180555Z AUTO 00000KT 10SM CLR 04/03 A3022 RMK AO2
KN03 180535Z AUTO 00000KT 10SM CLR 05/03 A3022 RMK AO2
KN03 180515Z AUTO 00000KT 10SM CLR 05/03 A3022 RMK AO2
KN03 180455Z AUTO 00000KT 10SM CLR 06/04 A3022 RMK AO2
KN03 180435Z AUTO 00000KT 10SM CLR 06/03 A3022 RMK AO2
KN03 180415Z AUTO 00000KT 10SM CLR 06/03 A3022 RMK AO2
KN03 180355Z AUTO 00000KT 10SM CLR 07/03 A3022 RMK AO2
KN03 180335Z AUTO 00000KT 10SM CLR 07/03 A3022 RMK AO2
KN03 180315Z AUTO 00000KT 10SM CLR 09/03 A3021 RMK AO2
KN03 180255Z AUTO 24003KT 10SM CLR 10/03 A3021 RMK AO2
KN03 180235Z AUTO 23004KT 10SM CLR 10/03 A3021 RMK AO2
KN03 180215Z AUTO 24006KT 10SM CLR 10/03 A3021 RMK AO2
KN03 180155Z AUTO 23006KT 10SM CLR 10/03 A3020 RMK AO2
KN03 180135Z AUTO 24007KT 10SM CLR 11/03 A3019 RMK AO2
KN03 180115Z AUTO 22007KT 10SM CLR 11/03 A3018 RMK AO2
KN03 180055Z AUTO 22006KT 10SM CLR 10/03 A3018 RMK AO2
KN03 180035Z AUTO 22004KT 10SM CLR 07/03 A3018 RMK AO2
KN03 180015Z AUTO 00000KT 10SM CLR 07/03 A3018 RMK AO2
KN03 172355Z AUTO 00000KT 10SM CLR 08/03 A3018 RMK AO2
KN03 172335Z AUTO 00000KT 10SM CLR 08/03 A3017 RMK AO2
KN03 172315Z AUTO 00000KT 10SM CLR 10/02 A3017 RMK AO2
KN03 172255Z AUTO 23003KT 10SM CLR 11/03 A3017 RMK AO2
KN03 172235Z AUTO 21005KT 10SM CLR 10/03 A3016 RMK AO2
KN03 172215Z AUTO 20004KT 10SM CLR 11/03 A3017 RMK AO2
KN03 172155Z AUTO 20006KT 10SM CLR 12/03 A3017 RMK AO2
KN03 172135Z AUTO 21008KT 10SM CLR 13/02 A3017 RMK AO2
KN03 172115Z AUTO 22007KT 10SM CLR 14/02 A3017 RMK AO2
KN03 172055Z AUTO 21008KT 10SM CLR 15/02 A3018 RMK AO2
KN03 172035Z AUTO 23006KT 10SM CLR 15/02 A3018 RMK AO2
KN03 172015Z AUTO 23009KT 10SM CLR 15/02 A3018 RMK AO2
KN03 171955Z AUTO 23009G15KT 10SM CLR 14/02 A3018 RMK AO2
KN03 171935Z AUTO 24008KT 10SM CLR 14/02 A3018 RMK AO2